Etusivu
METAR-TAF:

METAR-TAF

Lentoasemat :

Hearne Municipal Airport

Hearne, Texas, Yhdysvallat

Leveyspiiri: 30-52-18N, Pituuspiiri: 096-37-20W, korkeus merenpinnasta: 87 m

Tämänhetkinen sää

Tämä raportti tehtiin 15 minuuttia sitten, kello 16.35 UTC
Tuuli 14 kn pohjoisesta/koillisesta puuskistuen 24 kn:hen
Lämpötila 10°C
Kosteus 82%
Ilmanpaine 1022 hPa
Näkyvyys: 16.1 km
Hajanaisia pilviä 2700 ft:n korkeudessa
Hajanaisia pilviä 3500 ft:n korkeudessa
Pilvistä 5000 ft:n korkeudessa

METAR: KLHB 011635Z AUTO 03014G24KT 10SM SCT027 SCT035 OVC050 10/07 A3019 RMK AO2 T01040067

Aika: 10:50 (16:50 UTC)


TAF: puuttuu

Säähavainnot ja -ennusteet yli 4000 lentoasemalta (METAR- ja TAF-raportit).

Käytössä olevat sääasemat on merkitty karttaan keltaisilla ja punaisilla pisteillä.

Aseta hiiri pisteen päälle nähdäksesi sääaseman nimen.

Klikkaa sitten nähdäksesi säähavainnot ja -ennusteet.

Kartan vaihtaminen: klikkaa mustalla rastilla varustettuja vihreitä pisteitä, niin voit zoomata sisään; viivalla varustettua vihreää pistettä, niin voit zoomata ulos tai vihreitä nuolia, niin pääset viereisille kartoille.


METAR-TAF: